sensor_id;sensor_type;location;lat;lon;timestamp;pressure;altitude;pressure_sealevel;temperature;humidity
18145;BME280;14857;41.200;-8.326;2022-11-15T00:02:40;99954.97;;;16.38;100.00
18145;BME280;14857;41.200;-8.326;2022-11-15T00:05:29;99967.75;;;16.33;100.00
18145;BME280;14857;41.200;-8.326;2022-11-15T00:08:20;99953.59;;;16.34;100.00
18145;BME280;14857;41.200;-8.326;2022-11-15T00:11:12;99968.06;;;16.29;100.00
18145;BME280;14857;41.200;-8.326;2022-11-15T00:13:59;99971.09;;;16.35;100.00
18145;BME280;14857;41.200;-8.326;2022-11-15T00:16:48;99968.47;;;16.35;100.00
18145;BME280;14857;41.200;-8.326;2022-11-15T00:19:35;99959.31;;;16.29;100.00
18145;BME280;14857;41.200;-8.326;2022-11-15T00:22:23;99964.63;;;16.47;100.00
18145;BME280;14857;41.200;-8.326;2022-11-15T00:25:11;99948.09;;;16.45;100.00
18145;BME280;14857;41.200;-8.326;2022-11-15T00:27:58;99940.41;;;16.51;100.00
18145;BME280;14857;41.200;-8.326;2022-11-15T00:30:45;99928.22;;;16.50;100.00
18145;BME280;14857;41.200;-8.326;2022-11-15T00:33:32;99923.25;;;16.47;100.00
18145;BME280;14857;41.200;-8.326;2022-11-15T00:36:20;99915.38;;;16.38;100.00
18145;BME280;14857;41.200;-8.326;2022-11-15T00:39:21;99870.06;;;16.24;100.00
18145;BME280;14857;41.200;-8.326;2022-11-15T00:42:35;99868.09;;;16.26;100.00
18145;BME280;14857;41.200;-8.326;2022-11-15T00:45:50;99857.47;;;16.18;100.00
18145;BME280;14857;41.200;-8.326;2022-11-15T00:48:40;99898.25;;;16.42;100.00
18145;BME280;14857;41.200;-8.326;2022-11-15T00:51:27;99881.69;;;16.49;100.00
18145;BME280;14857;41.200;-8.326;2022-11-15T00:54:15;99892.09;;;16.51;100.00
18145;BME280;14857;41.200;-8.326;2022-11-15T00:57:02;99889.38;;;16.43;100.00
18145;BME280;14857;41.200;-8.326;2022-11-15T00:59:49;99877.91;;;16.52;100.00
18145;BME280;14857;41.200;-8.326;2022-11-15T01:02:36;99891.28;;;16.50;100.00
18145;BME280;14857;41.200;-8.326;2022-11-15T01:05:23;99876.41;;;16.49;100.00
18145;BME280;14857;41.200;-8.326;2022-11-15T01:08:12;99874.69;;;16.58;100.00
18145;BME280;14857;41.200;-8.326;2022-11-15T01:11:05;99841.50;;;16.55;100.00
18145;BME280;14857;41.200;-8.326;2022-11-15T01:13:52;99848.38;;;16.66;100.00
18145;BME280;14857;41.200;-8.326;2022-11-15T01:16:41;99855.63;;;16.64;100.00
18145;BME280;14857;41.200;-8.326;2022-11-15T01:19:28;99833.72;;;16.54;100.00
18145;BME280;14857;41.200;-8.326;2022-11-15T01:22:15;99831.53;;;16.49;100.00
18145;BME280;14857;41.200;-8.326;2022-11-15T01:25:03;99843.25;;;16.64;100.00
18145;BME280;14857;41.200;-8.326;2022-11-15T01:27:51;99830.13;;;16.55;100.00
18145;BME280;14857;41.200;-8.326;2022-11-15T01:30:38;99837.44;;;16.61;100.00
18145;BME280;14857;41.200;-8.326;2022-11-15T01:33:26;99797.56;;;16.64;100.00
18145;BME280;14857;41.200;-8.326;2022-11-15T01:36:16;99808.13;;;16.64;100.00
18145;BME280;14857;41.200;-8.326;2022-11-15T01:39:03;99798.44;;;16.72;100.00
18145;BME280;14857;41.200;-8.326;2022-11-15T01:41:50;99789.38;;;16.75;100.00
18145;BME280;14857;41.200;-8.326;2022-11-15T01:44:44;99788.31;;;16.68;100.00
18145;BME280;14857;41.200;-8.326;2022-11-15T01:47:35;99780.25;;;16.69;100.00
18145;BME280;14857;41.200;-8.326;2022-11-15T01:50:26;99775.72;;;16.79;100.00
18145;BME280;14857;41.200;-8.326;2022-11-15T01:53:17;99769.19;;;16.66;100.00
18145;BME280;14857;41.200;-8.326;2022-11-15T01:56:08;99773.84;;;16.72;100.00
18145;BME280;14857;41.200;-8.326;2022-11-15T01:58:57;99745.75;;;16.71;100.00
18145;BME280;14857;41.200;-8.326;2022-11-15T02:01:46;99749.94;;;16.73;100.00
18145;BME280;14857;41.200;-8.326;2022-11-15T02:04:37;99760.97;;;16.77;100.00
18145;BME280;14857;41.200;-8.326;2022-11-15T02:07:27;99730.25;;;16.50;100.00
18145;BME280;14857;41.200;-8.326;2022-11-15T02:10:19;99776.81;;;16.77;100.00
18145;BME280;14857;41.200;-8.326;2022-11-15T02:13:07;99768.19;;;16.67;100.00
18145;BME280;14857;41.200;-8.326;2022-11-15T02:16:01;99759.75;;;16.63;100.00
18145;BME280;14857;41.200;-8.326;2022-11-15T02:18:58;99772.69;;;16.74;100.00
18145;BME280;14857;41.200;-8.326;2022-11-15T02:21:52;99770.56;;;16.78;100.00
18145;BME280;14857;41.200;-8.326;2022-11-15T02:24:55;99764.41;;;16.69;100.00
18145;BME280;14857;41.200;-8.326;2022-11-15T02:28:06;99743.50;;;16.76;100.00
18145;BME280;14857;41.200;-8.326;2022-11-15T02:31:03;99726.47;;;16.53;100.00
18145;BME280;14857;41.200;-8.326;2022-11-15T02:33:57;99744.44;;;16.67;100.00
18145;BME280;14857;41.200;-8.326;2022-11-15T02:36:52;99739.16;;;16.67;100.00
18145;BME280;14857;41.200;-8.326;2022-11-15T02:39:46;99730.53;;;16.65;100.00
18145;BME280;14857;41.200;-8.326;2022-11-15T02:42:36;99732.25;;;16.74;100.00
18145;BME280;14857;41.200;-8.326;2022-11-15T02:45:52;99725.97;;;16.67;100.00
18145;BME280;14857;41.200;-8.326;2022-11-15T02:48:44;99716.16;;;16.59;100.00
18145;BME280;14857;41.200;-8.326;2022-11-15T02:51:32;99723.47;;;16.65;100.00
18145;BME280;14857;41.200;-8.326;2022-11-15T02:54:22;99717.03;;;16.68;100.00
18145;BME280;14857;41.200;-8.326;2022-11-15T02:57:13;99713.44;;;16.77;100.00
18145;BME280;14857;41.200;-8.326;2022-11-15T03:00:08;99696.91;;;16.67;100.00
18145;BME280;14857;41.200;-8.326;2022-11-15T03:03:16;99699.69;;;16.91;100.00
18145;BME280;14857;41.200;-8.326;2022-11-15T03:06:19;99691.44;;;16.94;100.00
18145;BME280;14857;41.200;-8.326;2022-11-15T03:09:10;99662.81;;;16.82;100.00
18145;BME280;14857;41.200;-8.326;2022-11-15T03:12:06;99685.50;;;16.92;100.00
18145;BME280;14857;41.200;-8.326;2022-11-15T03:14:58;99682.59;;;16.77;100.00
18145;BME280;14857;41.200;-8.326;2022-11-15T03:17:50;99674.94;;;16.92;100.00
18145;BME280;14857;41.200;-8.326;2022-11-15T03:20:39;99671.41;;;16.84;100.00
18145;BME280;14857;41.200;-8.326;2022-11-15T03:23:28;99658.19;;;16.84;100.00
18145;BME280;14857;41.200;-8.326;2022-11-15T03:26:19;99657.53;;;16.82;100.00
18145;BME280;14857;41.200;-8.326;2022-11-15T03:29:11;99649.16;;;16.86;100.00
18145;BME280;14857;41.200;-8.326;2022-11-15T03:32:03;99641.56;;;16.91;100.00
18145;BME280;14857;41.200;-8.326;2022-11-15T03:34:56;99616.59;;;16.77;100.00
18145;BME280;14857;41.200;-8.326;2022-11-15T03:37:52;99624.03;;;16.82;100.00
18145;BME280;14857;41.200;-8.326;2022-11-15T03:40:44;99625.72;;;16.83;100.00
18145;BME280;14857;41.200;-8.326;2022-11-15T03:43:36;99626.38;;;16.85;100.00
18145;BME280;14857;41.200;-8.326;2022-11-15T03:46:31;99598.94;;;16.78;100.00
18145;BME280;14857;41.200;-8.326;2022-11-15T03:49:24;99609.53;;;16.86;100.00
18145;BME280;14857;41.200;-8.326;2022-11-15T03:52:13;99598.81;;;16.88;100.00
18145;BME280;14857;41.200;-8.326;2022-11-15T03:55:05;99560.66;;;16.82;100.00
18145;BME280;14857;41.200;-8.326;2022-11-15T03:57:56;99549.44;;;16.80;100.00
18145;BME280;14857;41.200;-8.326;2022-11-15T04:00:44;99571.25;;;16.90;100.00
18145;BME280;14857;41.200;-8.326;2022-11-15T04:03:31;99550.06;;;16.74;100.00
18145;BME280;14857;41.200;-8.326;2022-11-15T04:06:19;99584.56;;;16.80;100.00
18145;BME280;14857;41.200;-8.326;2022-11-15T04:09:05;99609.66;;;16.76;100.00
18145;BME280;14857;41.200;-8.326;2022-11-15T04:11:52;99616.75;;;16.76;100.00
18145;BME280;14857;41.200;-8.326;2022-11-15T04:14:41;99636.66;;;16.62;100.00
18145;BME280;14857;41.200;-8.326;2022-11-15T04:17:50;99646.69;;;16.59;100.00
18145;BME280;14857;41.200;-8.326;2022-11-15T04:20:37;99622.78;;;16.60;100.00
18145;BME280;14857;41.200;-8.326;2022-11-15T04:23:41;99591.53;;;16.48;100.00
18145;BME280;14857;41.200;-8.326;2022-11-15T04:26:46;99577.00;;;16.52;100.00
18145;BME280;14857;41.200;-8.326;2022-11-15T04:29:33;99581.63;;;16.50;100.00
18145;BME280;14857;41.200;-8.326;2022-11-15T04:32:24;99581.78;;;16.48;100.00
18145;BME280;14857;41.200;-8.326;2022-11-15T04:35:12;99596.81;;;16.48;100.00
18145;BME280;14857;41.200;-8.326;2022-11-15T04:38:00;99602.09;;;16.48;100.00
18145;BME280;14857;41.200;-8.326;2022-11-15T04:40:47;99606.53;;;16.47;100.00
18145;BME280;14857;41.200;-8.326;2022-11-15T04:43:34;99610.44;;;16.43;100.00
18145;BME280;14857;41.200;-8.326;2022-11-15T04:46:21;99616.25;;;16.47;100.00
18145;BME280;14857;41.200;-8.326;2022-11-15T04:49:10;99603.63;;;16.33;100.00
18145;BME280;14857;41.200;-8.326;2022-11-15T04:51:57;99600.72;;;16.44;100.00
18145;BME280;14857;41.200;-8.326;2022-11-15T04:54:44;99605.00;;;16.45;100.00
18145;BME280;14857;41.200;-8.326;2022-11-15T04:57:31;99584.38;;;16.40;100.00
18145;BME280;14857;41.200;-8.326;2022-11-15T05:00:19;99577.81;;;16.44;100.00
18145;BME280;14857;41.200;-8.326;2022-11-15T05:03:20;99576.78;;;16.37;100.00
18145;BME280;14857;41.200;-8.326;2022-11-15T05:06:34;99583.41;;;16.41;100.00
18145;BME280;14857;41.200;-8.326;2022-11-15T05:09:21;99576.78;;;16.37;100.00
18145;BME280;14857;41.200;-8.326;2022-11-15T05:12:09;99571.66;;;16.36;100.00
18145;BME280;14857;41.200;-8.326;2022-11-15T05:14:56;99560.25;;;16.35;100.00
18145;BME280;14857;41.200;-8.326;2022-11-15T05:17:43;99557.16;;;16.40;100.00
18145;BME280;14857;41.200;-8.326;2022-11-15T05:20:30;99549.22;;;16.32;100.00
18145;BME280;14857;41.200;-8.326;2022-11-15T05:23:18;99542.41;;;16.29;100.00
18145;BME280;14857;41.200;-8.326;2022-11-15T05:26:06;99547.91;;;16.36;100.00
18145;BME280;14857;41.200;-8.326;2022-11-15T05:28:54;99549.69;;;16.35;100.00
18145;BME280;14857;41.200;-8.326;2022-11-15T05:31:42;99541.66;;;16.37;100.00
18145;BME280;14857;41.200;-8.326;2022-11-15T05:34:29;99549.38;;;16.38;100.00
18145;BME280;14857;41.200;-8.326;2022-11-15T05:37:16;99550.84;;;16.33;100.00
18145;BME280;14857;41.200;-8.326;2022-11-15T05:40:07;99541.97;;;16.34;100.00
18145;BME280;14857;41.200;-8.326;2022-11-15T05:42:54;99542.16;;;16.40;100.00
18145;BME280;14857;41.200;-8.326;2022-11-15T05:45:41;99535.03;;;16.33;100.00
18145;BME280;14857;41.200;-8.326;2022-11-15T05:48:28;99522.50;;;16.35;100.00
18145;BME280;14857;41.200;-8.326;2022-11-15T05:51:16;99530.06;;;16.29;100.00
18145;BME280;14857;41.200;-8.326;2022-11-15T05:54:04;99543.78;;;16.33;100.00
18145;BME280;14857;41.200;-8.326;2022-11-15T05:56:53;99543.94;;;16.32;100.00
18145;BME280;14857;41.200;-8.326;2022-11-15T05:59:41;99527.78;;;16.35;100.00
18145;BME280;14857;41.200;-8.326;2022-11-15T06:02:29;99539.97;;;16.36;100.00
18145;BME280;14857;41.200;-8.326;2022-11-15T06:05:16;99533.66;;;16.28;100.00
18145;BME280;14857;41.200;-8.326;2022-11-15T06:08:04;99537.84;;;16.31;100.00
18145;BME280;14857;41.200;-8.326;2022-11-15T06:10:50;99544.94;;;16.39;100.00
18145;BME280;14857;41.200;-8.326;2022-11-15T06:13:39;99553.22;;;16.44;100.00
18145;BME280;14857;41.200;-8.326;2022-11-15T06:16:25;99555.38;;;16.48;100.00
18145;BME280;14857;41.200;-8.326;2022-11-15T06:19:12;99556.00;;;16.42;100.00
18145;BME280;14857;41.200;-8.326;2022-11-15T06:22:00;99546.34;;;16.51;100.00
18145;BME280;14857;41.200;-8.326;2022-11-15T06:24:47;99535.03;;;16.33;100.00
18145;BME280;14857;41.200;-8.326;2022-11-15T06:27:35;99546.28;;;16.43;100.00
18145;BME280;14857;41.200;-8.326;2022-11-15T06:30:24;99533.47;;;16.48;100.00
18145;BME280;14857;41.200;-8.326;2022-11-15T06:33:11;99535.22;;;16.39;100.00
18145;BME280;14857;41.200;-8.326;2022-11-15T06:36:00;99503.03;;;16.36;100.00
18145;BME280;14857;41.200;-8.326;2022-11-15T06:38:47;99513.91;;;16.33;100.00
18145;BME280;14857;41.200;-8.326;2022-11-15T06:41:35;99503.72;;;16.38;100.00
18145;BME280;14857;41.200;-8.326;2022-11-15T06:44:22;99497.75;;;16.36;100.00
18145;BME280;14857;41.200;-8.326;2022-11-15T06:47:10;99507.88;;;16.48;100.00
18145;BME280;14857;41.200;-8.326;2022-11-15T06:49:57;99501.28;;;16.44;100.00
18145;BME280;14857;41.200;-8.326;2022-11-15T06:52:44;99495.31;;;16.42;100.00
18145;BME280;14857;41.200;-8.326;2022-11-15T06:55:31;99487.56;;;16.41;100.00
18145;BME280;14857;41.200;-8.326;2022-11-15T06:58:18;99500.97;;;16.47;100.00
18145;BME280;14857;41.200;-8.326;2022-11-15T07:01:09;99507.41;;;16.53;100.00
18145;BME280;14857;41.200;-8.326;2022-11-15T07:03:58;99500.78;;;16.49;100.00
18145;BME280;14857;41.200;-8.326;2022-11-15T07:06:46;99500.84;;;16.57;100.00
18145;BME280;14857;41.200;-8.326;2022-11-15T07:09:34;99501.78;;;16.48;100.00
18145;BME280;14857;41.200;-8.326;2022-11-15T07:12:21;99498.47;;;16.46;100.00
18145;BME280;14857;41.200;-8.326;2022-11-15T07:15:09;99490.44;;;16.55;100.00
18145;BME280;14857;41.200;-8.326;2022-11-15T07:18:00;99493.69;;;16.49;100.00
18145;BME280;14857;41.200;-8.326;2022-11-15T07:20:49;99486.19;;;16.62;100.00
18145;BME280;14857;41.200;-8.326;2022-11-15T07:23:36;99495.59;;;16.65;100.00
18145;BME280;14857;41.200;-8.326;2022-11-15T07:26:23;99482.72;;;16.62;100.00
18145;BME280;14857;41.200;-8.326;2022-11-15T07:29:11;99504.53;;;16.72;100.00
18145;BME280;14857;41.200;-8.326;2022-11-15T07:31:58;99501.94;;;16.88;100.00
18145;BME280;14857;41.200;-8.326;2022-11-15T07:34:45;99518.09;;;16.93;100.00
18145;BME280;14857;41.200;-8.326;2022-11-15T07:37:34;99522.09;;;17.05;100.00
18145;BME280;14857;41.200;-8.326;2022-11-15T07:40:21;99517.31;;;17.09;100.00
18145;BME280;14857;41.200;-8.326;2022-11-15T07:43:08;99514.50;;;17.10;100.00
18145;BME280;14857;41.200;-8.326;2022-11-15T07:45:55;99511.72;;;17.28;100.00
18145;BME280;14857;41.200;-8.326;2022-11-15T07:48:44;99506.13;;;17.31;100.00
18145;BME280;14857;41.200;-8.326;2022-11-15T07:51:31;99512.38;;;17.46;100.00
18145;BME280;14857;41.200;-8.326;2022-11-15T07:54:19;99515.53;;;17.58;100.00
18145;BME280;14857;41.200;-8.326;2022-11-15T07:57:06;99507.75;;;17.64;100.00
18145;BME280;14857;41.200;-8.326;2022-11-15T07:59:54;99482.47;;;17.54;100.00
18145;BME280;14857;41.200;-8.326;2022-11-15T08:02:41;99483.78;;;17.50;100.00
18145;BME280;14857;41.200;-8.326;2022-11-15T08:05:28;99480.38;;;17.57;100.00
18145;BME280;14857;41.200;-8.326;2022-11-15T08:08:15;99476.19;;;17.71;100.00
18145;BME280;14857;41.200;-8.326;2022-11-15T08:11:04;99483.44;;;17.85;100.00
18145;BME280;14857;41.200;-8.326;2022-11-15T08:13:54;99469.53;;;17.91;100.00
18145;BME280;14857;41.200;-8.326;2022-11-15T08:16:41;99469.88;;;17.88;100.00
18145;BME280;14857;41.200;-8.326;2022-11-15T08:19:28;99460.97;;;17.81;100.00
18145;BME280;14857;41.200;-8.326;2022-11-15T08:22:15;99454.50;;;17.83;100.00
18145;BME280;14857;41.200;-8.326;2022-11-15T08:25:02;99446.91;;;17.89;100.00
18145;BME280;14857;41.200;-8.326;2022-11-15T08:27:52;99452.00;;;17.98;100.00
18145;BME280;14857;41.200;-8.326;2022-11-15T08:30:42;99458.91;;;18.07;100.00
18145;BME280;14857;41.200;-8.326;2022-11-15T08:33:31;99430.84;;;17.98;100.00
18145;BME280;14857;41.200;-8.326;2022-11-15T08:36:19;99466.66;;;18.17;100.00
18145;BME280;14857;41.200;-8.326;2022-11-15T08:39:10;99514.91;;;18.27;100.00
18145;BME280;14857;41.200;-8.326;2022-11-15T08:41:57;99506.19;;;18.18;100.00
18145;BME280;14857;41.200;-8.326;2022-11-15T08:44:45;99472.66;;;18.03;100.00
18145;BME280;14857;41.200;-8.326;2022-11-15T08:47:32;99520.78;;;17.98;100.00
18145;BME280;14857;41.200;-8.326;2022-11-15T08:50:20;99517.84;;;17.85;100.00
18145;BME280;14857;41.200;-8.326;2022-11-15T08:53:07;99480.16;;;17.83;100.00
18145;BME280;14857;41.200;-8.326;2022-11-15T08:55:55;99498.66;;;17.75;100.00
18145;BME280;14857;41.200;-8.326;2022-11-15T08:58:42;99494.06;;;17.69;100.00
18145;BME280;14857;41.200;-8.326;2022-11-15T09:01:30;99503.44;;;17.88;100.00
18145;BME280;14857;41.200;-8.326;2022-11-15T09:04:18;99484.38;;;18.00;100.00
18145;BME280;14857;41.200;-8.326;2022-11-15T09:07:05;99488.22;;;17.98;100.00
18145;BME280;14857;41.200;-8.326;2022-11-15T09:09:52;99471.84;;;17.94;100.00
18145;BME280;14857;41.200;-8.326;2022-11-15T09:12:39;99473.31;;;18.05;100.00
18145;BME280;14857;41.200;-8.326;2022-11-15T09:15:26;99472.47;;;18.12;100.00
18145;BME280;14857;41.200;-8.326;2022-11-15T09:18:15;99471.44;;;18.13;100.00
18145;BME280;14857;41.200;-8.326;2022-11-15T09:21:03;99478.69;;;18.27;100.00
18145;BME280;14857;41.200;-8.326;2022-11-15T09:23:50;99478.44;;;18.45;100.00
18145;BME280;14857;41.200;-8.326;2022-11-15T09:26:39;99454.59;;;18.14;100.00
18145;BME280;14857;41.200;-8.326;2022-11-15T09:29:27;99387.25;;;17.78;100.00
18145;BME280;14857;41.200;-8.326;2022-11-15T09:32:15;99485.38;;;18.54;100.00
18145;BME280;14857;41.200;-8.326;2022-11-15T09:35:04;99465.16;;;18.14;100.00
18145;BME280;14857;41.200;-8.326;2022-11-15T09:37:52;99450.53;;;17.88;100.00
18145;BME280;14857;41.200;-8.326;2022-11-15T09:40:41;99505.47;;;18.32;100.00
18145;BME280;14857;41.200;-8.326;2022-11-15T09:43:38;99499.56;;;18.14;100.00
18145;BME280;14857;41.200;-8.326;2022-11-15T09:46:37;99489.97;;;18.21;100.00
18145;BME280;14857;41.200;-8.326;2022-11-15T09:49:41;99513.25;;;18.26;100.00
18145;BME280;14857;41.200;-8.326;2022-11-15T09:52:25;99507.56;;;18.45;100.00
18145;BME280;14857;41.200;-8.326;2022-11-15T09:54:53;99504.34;;;18.66;100.00
18145;BME280;14857;41.200;-8.326;2022-11-15T09:57:30;99494.72;;;18.34;100.00
18145;BME280;14857;41.200;-8.326;2022-11-15T10:00:07;99491.38;;;18.32;100.00
18145;BME280;14857;41.200;-8.326;2022-11-15T10:03:09;99503.25;;;18.52;100.00
18145;BME280;14857;41.200;-8.326;2022-11-15T10:05:41;99512.72;;;18.38;100.00
18145;BME280;14857;41.200;-8.326;2022-11-15T10:11:09;99504.19;;;18.20;100.00
18145;BME280;14857;41.200;-8.326;2022-11-15T10:14:01;99469.25;;;17.78;100.00
18145;BME280;14857;41.200;-8.326;2022-11-15T10:16:56;99546.19;;;18.23;100.00
18145;BME280;14857;41.200;-8.326;2022-11-15T10:19:35;99492.72;;;17.32;100.00
18145;BME280;14857;41.200;-8.326;2022-11-15T10:22:20;99505.97;;;17.57;100.00
18145;BME280;14857;41.200;-8.326;2022-11-15T10:25:06;99510.56;;;17.39;100.00
18145;BME280;14857;41.200;-8.326;2022-11-15T10:27:40;99572.41;;;17.86;100.00
18145;BME280;14857;41.200;-8.326;2022-11-15T10:30:12;99519.19;;;17.57;100.00
18145;BME280;14857;41.200;-8.326;2022-11-15T10:32:43;99540.28;;;17.97;100.00
18145;BME280;14857;41.200;-8.326;2022-11-15T10:35:20;99494.31;;;17.98;100.00
18145;BME280;14857;41.200;-8.326;2022-11-15T10:37:49;99577.47;;;18.20;100.00
18145;BME280;14857;41.200;-8.326;2022-11-15T10:40:22;99538.69;;;18.43;100.00
18145;BME280;14857;41.200;-8.326;2022-11-15T10:43:12;99517.75;;;18.64;100.00
18145;BME280;14857;41.200;-8.326;2022-11-15T10:45:42;99514.84;;;18.90;100.00
18145;BME280;14857;41.200;-8.326;2022-11-15T10:48:22;99506.41;;;18.48;100.00
18145;BME280;14857;41.200;-8.326;2022-11-15T10:50:52;99510.84;;;18.00;100.00
18145;BME280;14857;41.200;-8.326;2022-11-15T10:53:33;99571.94;;;18.46;100.00
18145;BME280;14857;41.200;-8.326;2022-11-15T10:56:12;99577.94;;;18.23;100.00
18145;BME280;14857;41.200;-8.326;2022-11-15T10:58:44;99547.56;;;18.11;100.00
18145;BME280;14857;41.200;-8.326;2022-11-15T11:01:16;99619.44;;;18.39;100.00
18145;BME280;14857;41.200;-8.326;2022-11-15T11:03:58;99526.94;;;17.82;100.00
18145;BME280;14857;41.200;-8.326;2022-11-15T11:06:28;99570.53;;;18.11;100.00
18145;BME280;14857;41.200;-8.326;2022-11-15T11:08:58;99567.34;;;18.23;100.00
18145;BME280;14857;41.200;-8.326;2022-11-15T11:11:44;99608.69;;;18.41;100.00
18145;BME280;14857;41.200;-8.326;2022-11-15T11:14:20;99616.28;;;18.44;100.00
18145;BME280;14857;41.200;-8.326;2022-11-15T11:16:54;99519.47;;;17.94;100.00
18145;BME280;14857;41.200;-8.326;2022-11-15T11:19:34;99573.19;;;18.11;100.00
18145;BME280;14857;41.200;-8.326;2022-11-15T11:22:13;99636.66;;;18.43;100.00
18145;BME280;14857;41.200;-8.326;2022-11-15T11:24:49;99632.84;;;18.38;100.00
18145;BME280;14857;41.200;-8.326;2022-11-15T11:27:36;99589.22;;;18.17;100.00
18145;BME280;14857;41.200;-8.326;2022-11-15T11:30:13;99604.78;;;18.75;100.00
18145;BME280;14857;41.200;-8.326;2022-11-15T11:32:55;99554.16;;;18.15;100.00
18145;BME280;14857;41.200;-8.326;2022-11-15T11:35:31;99540.78;;;18.64;100.00
18145;BME280;14857;41.200;-8.326;2022-11-15T11:38:15;99581.75;;;19.46;100.00
18145;BME280;14857;41.200;-8.326;2022-11-15T11:40:59;99582.28;;;20.01;100.00
18145;BME280;14857;41.200;-8.326;2022-11-15T11:43:40;99514.16;;;19.79;100.00
18145;BME280;14857;41.200;-8.326;2022-11-15T11:46:36;99490.22;;;19.50;100.00
18145;BME280;14857;41.200;-8.326;2022-11-15T11:49:10;99564.72;;;20.15;100.00
18145;BME280;14857;41.200;-8.326;2022-11-15T11:51:42;99563.00;;;20.22;100.00
18145;BME280;14857;41.200;-8.326;2022-11-15T11:54:14;99559.75;;;20.34;100.00
18145;BME280;14857;41.200;-8.326;2022-11-15T11:56:45;99545.63;;;20.63;100.00
18145;BME280;14857;41.200;-8.326;2022-11-15T11:59:21;99427.19;;;20.39;100.00
18145;BME280;14857;41.200;-8.326;2022-11-15T12:01:51;99506.25;;;20.88;100.00
18145;BME280;14857;41.200;-8.326;2022-11-15T12:04:25;99489.97;;;21.12;100.00
18145;BME280;14857;41.200;-8.326;2022-11-15T12:06:59;99432.41;;;20.48;100.00
18145;BME280;14857;41.200;-8.326;2022-11-15T12:09:32;99513.13;;;20.82;100.00
18145;BME280;14857;41.200;-8.326;2022-11-15T12:12:07;99485.72;;;20.61;100.00
18145;BME280;14857;41.200;-8.326;2022-11-15T12:14:43;99514.50;;;20.93;100.00
18145;BME280;14857;41.200;-8.326;2022-11-15T12:17:16;99505.09;;;20.76;100.00
18145;BME280;14857;41.200;-8.326;2022-11-15T12:19:46;99438.31;;;20.28;100.00
18145;BME280;14857;41.200;-8.326;2022-11-15T12:22:19;99461.16;;;20.00;100.00
18145;BME280;14857;41.200;-8.326;2022-11-15T12:24:53;99469.78;;;20.17;100.00
18145;BME280;14857;41.200;-8.326;2022-11-15T12:27:31;99516.03;;;19.56;100.00
18145;BME280;14857;41.200;-8.326;2022-11-15T12:30:09;99450.59;;;18.18;100.00
18145;BME280;14857;41.200;-8.326;2022-11-15T12:32:49;99442.66;;;18.18;100.00
18145;BME280;14857;41.200;-8.326;2022-11-15T12:35:28;99520.09;;;18.59;100.00
18145;BME280;14857;41.200;-8.326;2022-11-15T12:37:58;99532.16;;;18.70;100.00
18145;BME280;14857;41.200;-8.326;2022-11-15T12:40:36;99446.22;;;18.33;100.00
18145;BME280;14857;41.200;-8.326;2022-11-15T12:43:37;99506.88;;;19.35;100.00
18145;BME280;14857;41.200;-8.326;2022-11-15T12:46:18;99462.47;;;18.30;100.00
18145;BME280;14857;41.200;-8.326;2022-11-15T12:48:51;99517.47;;;18.90;100.00
18145;BME280;14857;41.200;-8.326;2022-11-15T12:51:23;99522.88;;;18.74;100.00
18145;BME280;14857;41.200;-8.326;2022-11-15T12:57:31;99495.53;;;19.50;100.00
18145;BME280;14857;41.200;-8.326;2022-11-15T13:00:04;99545.72;;;19.28;100.00
18145;BME280;14857;41.200;-8.326;2022-11-15T13:02:36;99535.16;;;19.20;100.00
18145;BME280;14857;41.200;-8.326;2022-11-15T13:08:36;99462.13;;;18.33;100.00
18145;BME280;14857;41.200;-8.326;2022-11-15T13:17:22;99516.19;;;19.09;100.00
18145;BME280;14857;41.200;-8.326;2022-11-15T13:19:58;99425.84;;;18.73;100.00
18145;BME280;14857;41.200;-8.326;2022-11-15T13:22:28;99464.50;;;18.90;100.00
18145;BME280;14857;41.200;-8.326;2022-11-15T13:25:46;99509.13;;;19.47;100.00
18145;BME280;14857;41.200;-8.326;2022-11-15T13:28:24;99480.25;;;19.52;100.00
18145;BME280;14857;41.200;-8.326;2022-11-15T13:30:56;99517.75;;;20.01;100.00
18145;BME280;14857;41.200;-8.326;2022-11-15T13:33:30;99523.72;;;20.47;100.00
18145;BME280;14857;41.200;-8.326;2022-11-15T13:36:07;99477.06;;;20.59;100.00
18145;BME280;14857;41.200;-8.326;2022-11-15T13:38:38;99426.97;;;20.56;100.00
18145;BME280;14857;41.200;-8.326;2022-11-15T13:41:17;99516.09;;;20.73;100.00
18145;BME280;14857;41.200;-8.326;2022-11-15T13:43:47;99461.28;;;19.92;100.00
18145;BME280;14857;41.200;-8.326;2022-11-15T13:46:18;99463.47;;;19.74;100.00
18145;BME280;14857;41.200;-8.326;2022-11-15T13:48:52;99462.13;;;19.41;100.00
18145;BME280;14857;41.200;-8.326;2022-11-15T13:51:30;99537.25;;;19.93;100.00
18145;BME280;14857;41.200;-8.326;2022-11-15T13:54:08;99514.88;;;19.87;100.00
18145;BME280;14857;41.200;-8.326;2022-11-15T13:56:40;99499.91;;;20.09;100.00
18145;BME280;14857;41.200;-8.326;2022-11-15T13:59:15;99499.63;;;20.63;100.00
18145;BME280;14857;41.200;-8.326;2022-11-15T14:01:46;99510.41;;;20.97;100.00
18145;BME280;14857;41.200;-8.326;2022-11-15T14:04:18;99474.28;;;20.81;100.00
18145;BME280;14857;41.200;-8.326;2022-11-15T14:06:53;99409.94;;;20.29;100.00
18145;BME280;14857;41.200;-8.326;2022-11-15T14:09:31;99502.06;;;20.79;100.00
18145;BME280;14857;41.200;-8.326;2022-11-15T14:12:02;99495.53;;;20.81;100.00
18145;BME280;14857;41.200;-8.326;2022-11-15T14:14:48;99475.28;;;20.45;100.00
18145;BME280;14857;41.200;-8.326;2022-11-15T14:17:20;99501.03;;;20.29;100.00
18145;BME280;14857;41.200;-8.326;2022-11-15T14:19:50;99498.25;;;20.08;100.00
18145;BME280;14857;41.200;-8.326;2022-11-15T14:22:23;99498.53;;;20.13;100.00
18145;BME280;14857;41.200;-8.326;2022-11-15T14:25:13;99492.03;;;20.01;100.00
18145;BME280;14857;41.200;-8.326;2022-11-15T14:27:44;99497.16;;;19.88;100.00
18145;BME280;14857;41.200;-8.326;2022-11-15T14:30:13;99504.09;;;19.89;100.00
18145;BME280;14857;41.200;-8.326;2022-11-15T14:32:45;99499.63;;;20.19;100.00